createdAt,value
2018-12-05T11:03:30.090Z,78.20
2018-12-05T11:06:02.306Z,80.80
2018-12-05T11:08:34.819Z,80.60
2018-12-05T11:11:07.324Z,80.30
2018-12-05T11:13:40.448Z,80.10
2018-12-05T11:16:09.701Z,79.40
2018-12-05T11:18:42.401Z,79.00
2018-12-05T11:21:14.852Z,78.50
2018-12-05T11:23:59.359Z,78.00
2018-12-05T11:26:26.716Z,78.20
2018-12-05T11:28:52.988Z,76.70
2018-12-05T11:31:19.852Z,76.10
2018-12-05T11:33:46.105Z,75.70
2018-12-05T11:36:12.512Z,75.10
2018-12-05T11:38:39.237Z,74.90
2018-12-05T11:41:05.523Z,74.80
2018-12-05T11:43:31.691Z,74.60
2018-12-05T11:45:58.623Z,74.40
2018-12-05T11:48:24.915Z,74.00
2018-12-05T11:50:51.182Z,73.40
2018-12-05T11:53:17.748Z,73.30
2018-12-05T11:55:44.045Z,73.00
2018-12-05T11:58:10.377Z,72.90
2018-12-05T12:00:36.974Z,72.50
2018-12-05T12:03:03.347Z,72.60
2018-12-05T12:05:29.665Z,71.70
2018-12-05T12:07:56.006Z,71.60
2018-12-05T12:10:24.308Z,71.00
2018-12-05T12:12:56.928Z,70.90
2018-12-05T12:15:23.203Z,70.90
2018-12-05T12:17:49.504Z,70.20
2018-12-05T12:20:16.172Z,70.20
2018-12-05T12:22:42.364Z,69.60
2018-12-05T12:25:08.632Z,69.40
2018-12-05T12:27:35.193Z,69.80
2018-12-05T12:30:01.399Z,68.70
2018-12-05T12:32:27.857Z,68.80
2018-12-05T12:34:54.287Z,68.10
2018-12-05T12:37:20.515Z,67.80
2018-12-05T12:39:46.704Z,67.30
2018-12-05T12:42:13.396Z,66.80
2018-12-05T12:44:39.684Z,66.70
2018-12-05T12:47:05.928Z,66.70
2018-12-05T12:49:32.337Z,67.00
2018-12-05T12:51:58.604Z,66.60
2018-12-05T12:54:24.787Z,66.00
2018-12-05T12:56:51.539Z,66.00
2018-12-05T12:59:17.634Z,65.50
2018-12-05T13:01:43.909Z,65.00
2018-12-05T13:04:10.459Z,64.80
2018-12-05T13:06:36.712Z,64.60
2018-12-05T13:09:05.700Z,65.00
2018-12-05T13:11:32.208Z,65.60
2018-12-05T13:13:58.563Z,65.10
2018-12-05T13:16:24.975Z,64.90
2018-12-05T13:18:51.294Z,64.90
2018-12-05T13:21:17.609Z,64.70
2018-12-05T13:23:43.852Z,64.90
2018-12-05T13:26:10.491Z,64.70
2018-12-05T13:28:36.811Z,64.80
2018-12-05T13:31:03.308Z,64.70
2018-12-05T13:33:30.074Z,64.60
2018-12-05T13:35:56.336Z,64.50
2018-12-05T13:38:22.682Z,64.30
2018-12-05T13:40:49.319Z,64.20
2018-12-05T13:43:15.511Z,64.30
2018-12-05T13:45:41.722Z,64.40
2018-12-05T13:48:08.300Z,64.20
2018-12-05T13:50:34.504Z,64.20
2018-12-05T13:53:00.744Z,64.40
2018-12-05T13:55:27.303Z,64.40
2018-12-05T13:57:53.507Z,64.60
2018-12-05T14:00:19.875Z,64.60
2018-12-05T14:02:46.413Z,64.70
2018-12-05T14:05:12.685Z,65.00
